Wauneta, NE

9:33 AM MDT on July 22, 2014 (GMT -0600)
Imperial Municipal (KIML) Elev 3274 ft | 40.51 °N, 101.62 °W | Change Station

Current weather conditions updated 40 minutes ago

Clear
Clear
80 °F
Feels Like 81 °F
N
0
Wind Variable Wind from North

Today is forecast to be Cooler than yesterday.

Today
High -- | Low -- °F
--% Chance of Precip.
Yesterday
High -- | Low -- °F
Precip. -- in
5:33 AM 8:09 PM
Waning Crescent, 16% visible
Pressure 30.07 in
Visibility 10.0 miles
Clouds Clear
Heat Index 81 °F
Dew Point 58 °F
Humidity 47%
Rainfall 0.00 in
Snow Depth Not available.
UV 4 out of 12
Pollen 6.50 out of 12
Air Quality Not available.
Flu Activity Sporadic
METAR KIML 221453Z AUTO 00000KT 10SM CLR 27/14 A3018 RMK AO2 SLP182 T02670144 53024

More Conditions Fewer Conditions

Pressure 30.07 in
Visibility 10.0 miles
Clouds Clear
Heat Index 81 °F
Dew Point 58 °F
Humidity 47%
Rainfall 0.00 in
Snow Depth Not available.
UV 4 out of 12
Pollen 6.50 out of 12
Air Quality Not available.
Flu Activity Sporadic
METAR KIML 221453Z AUTO 00000KT 10SM CLR 27/14 A3018 RMK AO2 SLP182 T02670144 53024

More Conditions Fewer Conditions

10-Day Weather Forecast

LIGHTNING

Thunderstorms are forecast for your area. Cloud conditions might be right for producing strikes in the next few days, though lightning itself cannot be forecasted.

Lightning is a visible electrical discharge produced by a thunderstorm, based on the build up of oppositely charged particles within a cloud and from cloud to ground.

Know how to stay safe in a lightning storm.

Check out these Lightning WunderPhotos!

Almanac

Astronomy

Jul. 22, 2014 Rise Set
Actual Time 5:33 AM MDT 8:09 PM MDT
Civil Twilight 5:02 AM MDT 8:40 PM MDT
Nautical Twilight 4:23 AM MDT 9:20 PM MDT
Astronomical Twilight 3:38 AM MDT 10:04 PM MDT
Moon 2:08 AM MDT 4:49 PM MDT
Length of Visible Light 15h 38m
Length of Day
14h 35m
Tomorrow will be 1m 41s shorter.
Waning Crescent, 16% of the Moon is Illuminated
Today
Waning Crescent
Jul 26
New
Aug 3
First Quarter
Aug 10
Full
Aug 17
Last Quarter

Today's Extremes

State Highs State Lows

Community

WunderPhotos

Upload Photos

1,736,265 photos uploaded!

WunderBlogs® & News

By Dr. Jeff Masters
Director of Meteorology, Weather Underground
By Kari Strenfel
Meteorologist, Weather Underground
By Christopher C. Burt
Weather Historian, Weather Underground
July 20, 2014
July 20, 2014
July 20, 2014

Nearby

Snow Depth

Station Depth Elevation
No new snow has been reported.

Earthquake Activity

City Distance Mag. Time & Date
No recent earthquake activity has been reported nearby.
Minimum magnitude displayed is 2.5.

Coastal Water Temperatures

Place Temperature
No Stations Reporting

Nearby Weather Stations

Station Location Temp. Heat Index Dew Point Humidity Wind Precip. Elev Updated Type
HAYES CENTER, HAYES CENTER, NE 79.6 °F 81 °F 61 °F 53% East  at  14.0 mph 0.00 in / hr 3035 ft 9:41 AM CDT Normal

Show More Stations Show Fewer Stations